sensor_id;sensor_type;location;lat;lon;timestamp;temperature;humidity
3980;DHT22;2004;52.452;13.120;2024-01-11T00:07:35;-7.00;99.90
3980;DHT22;2004;52.452;13.120;2024-01-11T00:24:10;-7.00;99.90
3980;DHT22;2004;52.452;13.120;2024-01-11T00:32:04;-7.00;99.90
3980;DHT22;2004;52.452;13.120;2024-01-11T00:40:04;-7.10;99.90
3980;DHT22;2004;52.452;13.120;2024-01-11T00:48:18;-7.00;99.90
3980;DHT22;2004;52.452;13.120;2024-01-11T00:56:20;-7.00;99.90
3980;DHT22;2004;52.452;13.120;2024-01-11T01:04:16;-7.00;99.90
3980;DHT22;2004;52.452;13.120;2024-01-11T01:12:07;-7.00;99.90
3980;DHT22;2004;52.452;13.120;2024-01-11T01:19:58;-6.90;99.90
3980;DHT22;2004;52.452;13.120;2024-01-11T01:27:55;-6.90;99.90
3980;DHT22;2004;52.452;13.120;2024-01-11T01:35:49;-6.90;99.90
3980;DHT22;2004;52.452;13.120;2024-01-11T01:43:48;-6.90;99.90
3980;DHT22;2004;52.452;13.120;2024-01-11T01:51:49;-6.80;99.90
3980;DHT22;2004;52.452;13.120;2024-01-11T01:59:43;-6.90;99.90
3980;DHT22;2004;52.452;13.120;2024-01-11T02:07:46;-6.80;99.90
3980;DHT22;2004;52.452;13.120;2024-01-11T02:15:47;-6.90;99.90
3980;DHT22;2004;52.452;13.120;2024-01-11T02:24:04;-6.90;99.90
3980;DHT22;2004;52.452;13.120;2024-01-11T02:31:56;-6.90;99.90
3980;DHT22;2004;52.452;13.120;2024-01-11T02:39:47;-7.00;99.90
3980;DHT22;2004;52.452;13.120;2024-01-11T02:47:46;-7.00;99.90
3980;DHT22;2004;52.452;13.120;2024-01-11T02:55:50;-6.90;99.90
3980;DHT22;2004;52.452;13.120;2024-01-11T03:03:40;-6.80;99.90
3980;DHT22;2004;52.452;13.120;2024-01-11T03:11:34;-6.80;99.90
3980;DHT22;2004;52.452;13.120;2024-01-11T03:19:27;-6.70;99.90
3980;DHT22;2004;52.452;13.120;2024-01-11T03:27:18;-6.70;99.90
3980;DHT22;2004;52.452;13.120;2024-01-11T03:35:13;-6.70;99.90
3980;DHT22;2004;52.452;13.120;2024-01-11T03:43:12;-6.60;99.90
3980;DHT22;2004;52.452;13.120;2024-01-11T03:51:09;-6.50;99.90
3980;DHT22;2004;52.452;13.120;2024-01-11T03:59:09;-6.50;99.90
3980;DHT22;2004;52.452;13.120;2024-01-11T04:07:15;-6.40;99.90
3980;DHT22;2004;52.452;13.120;2024-01-11T04:15:19;-6.30;99.90
3980;DHT22;2004;52.452;13.120;2024-01-11T04:23:16;-6.20;99.90
3980;DHT22;2004;52.452;13.120;2024-01-11T04:31:16;-6.10;99.90
3980;DHT22;2004;52.452;13.120;2024-01-11T04:39:23;-6.10;99.90
3980;DHT22;2004;52.452;13.120;2024-01-11T04:55:48;-6.00;99.90
3980;DHT22;2004;52.452;13.120;2024-01-11T05:12:14;-5.80;99.90
3980;DHT22;2004;52.452;13.120;2024-01-11T05:20:25;-5.70;99.90
3980;DHT22;2004;52.452;13.120;2024-01-11T05:28:36;-5.60;99.90
3980;DHT22;2004;52.452;13.120;2024-01-11T05:36:31;-5.50;99.90
3980;DHT22;2004;52.452;13.120;2024-01-11T05:44:29;-5.30;99.90
3980;DHT22;2004;52.452;13.120;2024-01-11T05:52:43;-5.20;99.90
3980;DHT22;2004;52.452;13.120;2024-01-11T06:00:45;-5.20;99.90
3980;DHT22;2004;52.452;13.120;2024-01-11T06:08:36;-5.10;99.90
3980;DHT22;2004;52.452;13.120;2024-01-11T06:16:38;-5.00;99.90
3980;DHT22;2004;52.452;13.120;2024-01-11T06:24:48;-4.90;99.90
3980;DHT22;2004;52.452;13.120;2024-01-11T06:32:58;-4.80;99.90
3980;DHT22;2004;52.452;13.120;2024-01-11T06:49:49;-4.70;99.90
3980;DHT22;2004;52.452;13.120;2024-01-11T06:57:55;-4.60;99.90
3980;DHT22;2004;52.452;13.120;2024-01-11T07:06:01;-4.50;99.90
3980;DHT22;2004;52.452;13.120;2024-01-11T07:22:33;-4.30;99.90
3980;DHT22;2004;52.452;13.120;2024-01-11T07:30:31;-4.30;99.90
3980;DHT22;2004;52.452;13.120;2024-01-11T07:38:58;-4.30;99.90
3980;DHT22;2004;52.452;13.120;2024-01-11T07:46:57;-4.20;99.90
3980;DHT22;2004;52.452;13.120;2024-01-11T07:55:05;-4.20;99.90
3980;DHT22;2004;52.452;13.120;2024-01-11T08:03:47;-4.10;99.90
3980;DHT22;2004;52.452;13.120;2024-01-11T08:11:58;-4.00;99.90
3980;DHT22;2004;52.452;13.120;2024-01-11T08:20:39;-4.00;99.90
3980;DHT22;2004;52.452;13.120;2024-01-11T08:29:11;-4.00;99.90
3980;DHT22;2004;52.452;13.120;2024-01-11T08:37:12;-4.00;99.90
3980;DHT22;2004;52.452;13.120;2024-01-11T09:02:29;-4.20;99.90
3980;DHT22;2004;52.452;13.120;2024-01-11T09:11:30;-4.10;99.90
3980;DHT22;2004;52.452;13.120;2024-01-11T09:27:58;-4.00;99.90
3980;DHT22;2004;52.452;13.120;2024-01-11T09:36:01;-3.90;99.90
3980;DHT22;2004;52.452;13.120;2024-01-11T09:44:50;-3.90;99.90
3980;DHT22;2004;52.452;13.120;2024-01-11T09:53:16;-3.80;99.90
3980;DHT22;2004;52.452;13.120;2024-01-11T10:01:46;-3.80;99.90
3980;DHT22;2004;52.452;13.120;2024-01-11T10:10:16;-3.70;99.90
3980;DHT22;2004;52.452;13.120;2024-01-11T10:18:26;-3.70;99.90
3980;DHT22;2004;52.452;13.120;2024-01-11T10:27:02;-3.60;99.90
3980;DHT22;2004;52.452;13.120;2024-01-11T10:43:39;-3.40;99.90
3980;DHT22;2004;52.452;13.120;2024-01-11T10:51:40;-3.20;99.90
3980;DHT22;2004;52.452;13.120;2024-01-11T10:59:46;-3.10;99.90
3980;DHT22;2004;52.452;13.120;2024-01-11T11:07:49;-3.10;99.90
3980;DHT22;2004;52.452;13.120;2024-01-11T11:15:45;-3.00;99.90
3980;DHT22;2004;52.452;13.120;2024-01-11T11:23:45;-3.00;99.90
3980;DHT22;2004;52.452;13.120;2024-01-11T11:32:06;-2.90;99.90
3980;DHT22;2004;52.452;13.120;2024-01-11T11:40:31;-2.90;99.90
3980;DHT22;2004;52.452;13.120;2024-01-11T11:57:37;-2.80;99.90
3980;DHT22;2004;52.452;13.120;2024-01-11T12:14:04;-2.70;99.90
3980;DHT22;2004;52.452;13.120;2024-01-11T12:21:57;-2.60;99.90
3980;DHT22;2004;52.452;13.120;2024-01-11T12:30:20;-2.50;99.90
3980;DHT22;2004;52.452;13.120;2024-01-11T12:38:36;-2.40;99.90
3980;DHT22;2004;52.452;13.120;2024-01-11T12:46:45;-2.40;99.90
3980;DHT22;2004;52.452;13.120;2024-01-11T12:55:01;-2.30;99.90
3980;DHT22;2004;52.452;13.120;2024-01-11T13:03:04;-2.20;99.90
3980;DHT22;2004;52.452;13.120;2024-01-11T13:11:18;-2.20;99.90
3980;DHT22;2004;52.452;13.120;2024-01-11T13:19:31;-2.10;99.90
3980;DHT22;2004;52.452;13.120;2024-01-11T13:27:53;-2.10;99.90
3980;DHT22;2004;52.452;13.120;2024-01-11T13:35:59;-2.00;99.90
3980;DHT22;2004;52.452;13.120;2024-01-11T13:44:12;-2.00;99.90
3980;DHT22;2004;52.452;13.120;2024-01-11T13:52:11;-1.90;99.90
3980;DHT22;2004;52.452;13.120;2024-01-11T14:00:10;-1.90;99.90
3980;DHT22;2004;52.452;13.120;2024-01-11T14:08:04;-1.80;99.90
3980;DHT22;2004;52.452;13.120;2024-01-11T14:16:55;-1.80;99.90
3980;DHT22;2004;52.452;13.120;2024-01-11T14:25:06;-1.70;99.90
3980;DHT22;2004;52.452;13.120;2024-01-11T14:33:17;-1.70;99.90
3980;DHT22;2004;52.452;13.120;2024-01-11T14:41:11;-1.60;99.90
3980;DHT22;2004;52.452;13.120;2024-01-11T14:49:13;-1.60;99.90
3980;DHT22;2004;52.452;13.120;2024-01-11T14:57:19;-1.60;99.90
3980;DHT22;2004;52.452;13.120;2024-01-11T15:05:53;-1.60;99.90
3980;DHT22;2004;52.452;13.120;2024-01-11T15:23:09;-1.50;99.90
3980;DHT22;2004;52.452;13.120;2024-01-11T15:39:19;-1.50;99.90
3980;DHT22;2004;52.452;13.120;2024-01-11T15:56:19;-1.40;99.90
3980;DHT22;2004;52.452;13.120;2024-01-11T16:04:24;-1.40;99.90
3980;DHT22;2004;52.452;13.120;2024-01-11T16:12:42;-1.30;99.90
3980;DHT22;2004;52.452;13.120;2024-01-11T16:20:41;-1.30;99.90
3980;DHT22;2004;52.452;13.120;2024-01-11T16:28:57;-1.20;99.90
3980;DHT22;2004;52.452;13.120;2024-01-11T16:36:48;-1.20;99.90
3980;DHT22;2004;52.452;13.120;2024-01-11T16:44:48;-1.10;99.90
3980;DHT22;2004;52.452;13.120;2024-01-11T16:52:49;-1.10;99.90
3980;DHT22;2004;52.452;13.120;2024-01-11T17:00:52;-1.00;99.90
3980;DHT22;2004;52.452;13.120;2024-01-11T17:08:49;-1.00;99.90
3980;DHT22;2004;52.452;13.120;2024-01-11T17:16:39;-0.90;99.90
3980;DHT22;2004;52.452;13.120;2024-01-11T17:24:30;-0.90;99.90
3980;DHT22;2004;52.452;13.120;2024-01-11T17:32:24;-0.90;99.90
3980;DHT22;2004;52.452;13.120;2024-01-11T17:40:28;-0.80;99.90
3980;DHT22;2004;52.452;13.120;2024-01-11T17:48:37;-0.80;99.90
3980;DHT22;2004;52.452;13.120;2024-01-11T17:56:31;-0.70;99.90
3980;DHT22;2004;52.452;13.120;2024-01-11T18:04:25;-0.70;99.90
3980;DHT22;2004;52.452;13.120;2024-01-11T18:12:16;-0.60;99.90
3980;DHT22;2004;52.452;13.120;2024-01-11T18:20:10;-0.60;99.90
3980;DHT22;2004;52.452;13.120;2024-01-11T18:28:04;-0.50;99.90
3980;DHT22;2004;52.452;13.120;2024-01-11T18:35:55;-0.50;99.90
3980;DHT22;2004;52.452;13.120;2024-01-11T18:43:45;-0.40;99.90
3980;DHT22;2004;52.452;13.120;2024-01-11T18:51:40;-0.40;99.90
3980;DHT22;2004;52.452;13.120;2024-01-11T18:59:31;-0.30;99.90
3980;DHT22;2004;52.452;13.120;2024-01-11T19:07:23;-0.30;99.90
3980;DHT22;2004;52.452;13.120;2024-01-11T19:15:16;-0.30;99.90
3980;DHT22;2004;52.452;13.120;2024-01-11T19:23:10;-0.20;99.90
3980;DHT22;2004;52.452;13.120;2024-01-11T19:31:09;-0.20;99.90
3980;DHT22;2004;52.452;13.120;2024-01-11T19:39:06;-0.20;99.90
3980;DHT22;2004;52.452;13.120;2024-01-11T19:46:59;-0.20;99.90
3980;DHT22;2004;52.452;13.120;2024-01-11T19:55:03;-0.20;99.90
3980;DHT22;2004;52.452;13.120;2024-01-11T20:02:56;-0.10;99.90
3980;DHT22;2004;52.452;13.120;2024-01-11T20:10:48;-0.10;99.90
3980;DHT22;2004;52.452;13.120;2024-01-11T20:18:41;-0.10;99.90
3980;DHT22;2004;52.452;13.120;2024-01-11T20:26:34;0.00;99.90
3980;DHT22;2004;52.452;13.120;2024-01-11T20:34:30;0.00;99.90
3980;DHT22;2004;52.452;13.120;2024-01-11T20:42:21;0.00;99.90
3980;DHT22;2004;52.452;13.120;2024-01-11T20:50:16;0.10;99.90
3980;DHT22;2004;52.452;13.120;2024-01-11T20:58:10;0.10;99.90
3980;DHT22;2004;52.452;13.120;2024-01-11T21:06:04;0.20;99.90
3980;DHT22;2004;52.452;13.120;2024-01-11T21:13:58;0.20;99.90
3980;DHT22;2004;52.452;13.120;2024-01-11T21:21:51;0.20;99.90
3980;DHT22;2004;52.452;13.120;2024-01-11T21:29:42;0.20;99.90
3980;DHT22;2004;52.452;13.120;2024-01-11T21:37:33;0.20;99.90
3980;DHT22;2004;52.452;13.120;2024-01-11T21:45:31;0.30;99.90
3980;DHT22;2004;52.452;13.120;2024-01-11T21:53:21;0.30;99.90
3980;DHT22;2004;52.452;13.120;2024-01-11T22:01:17;0.30;99.90
3980;DHT22;2004;52.452;13.120;2024-01-11T22:09:08;0.30;99.90
3980;DHT22;2004;52.452;13.120;2024-01-11T22:17:02;0.40;99.90
3980;DHT22;2004;52.452;13.120;2024-01-11T22:24:59;0.40;99.90
3980;DHT22;2004;52.452;13.120;2024-01-11T22:32:53;0.50;99.90
3980;DHT22;2004;52.452;13.120;2024-01-11T22:40:44;0.50;99.90
3980;DHT22;2004;52.452;13.120;2024-01-11T22:48:38;0.50;99.90
3980;DHT22;2004;52.452;13.120;2024-01-11T22:56:31;0.50;99.90
3980;DHT22;2004;52.452;13.120;2024-01-11T23:04:25;0.60;99.90
3980;DHT22;2004;52.452;13.120;2024-01-11T23:12:15;0.60;99.90
3980;DHT22;2004;52.452;13.120;2024-01-11T23:20:08;0.60;99.90
3980;DHT22;2004;52.452;13.120;2024-01-11T23:28:03;0.70;99.90
3980;DHT22;2004;52.452;13.120;2024-01-11T23:35:55;0.70;99.90
3980;DHT22;2004;52.452;13.120;2024-01-11T23:43:48;0.70;99.90
3980;DHT22;2004;52.452;13.120;2024-01-11T23:51:41;0.70;99.90
3980;DHT22;2004;52.452;13.120;2024-01-11T23:59:32;0.70;99.90
